Portada
METAR-TAF:

METAR-TAF

Aeropuertos :

Aeropuerto Internacional Juan Vicente Gómez

San Antonio del Táchira, Venezuela

latitud: 07-51N, longitud: 072-27W, altitud: 377 m

METAR: falta

Hora: 02:53 (06:53 UTC)

Pronóstico

El informe se hizo hace 2 horas y 53 minutos, a las 04:00 UTC
Pronóstico válido del 22 a las 06 UTC al 23 a las 06 UTC
Viento 5 kt del oeste
Visibilidad: 9000 m
Cielo nuboso a una altura de 1700 ft
llovizna
Evolucionando progresivamente
del 22 a las 06 UTC al 22 a las 10 UTC
Viento 3 kt del oeste
Visibilidad: 8000 m
Cielo nuboso a una altura de 1700 ft
llovizna

TAF: SVSA 220400Z 2206/2306 28005KT 9000 DZ BKN017 TX32/2218Z TN22/2308Z BECMG 2206/2210 27003KT 8000 DZ BKN017

Observaciones y pronósticos meteorológicos de más de 4000 aeropuertos (mensajes METAR y TAF).

Los puntos amarillos y rojos representan las estaciones disponibles.

Ponga el ratón en el punto deseado para ver el nombre de la estación.

Haga clic para ver las observaciones y los pronósticos meteorológicos.

Para cambiar el mapa : haga clic en los botones verdes con una cruz de color negro para hacer un zoom, en el botón verde con un guión para alejar o en las flechas verdes para mapas adyacentes.


METAR-TAF: